createdAt,value
2018-06-04T00:00:20.474Z,75.89
2018-06-04T00:02:49.333Z,76.68
2018-06-04T00:05:18.194Z,77.01
2018-06-04T00:07:47.025Z,77.12
2018-06-04T00:10:15.868Z,77.08
2018-06-04T00:12:44.702Z,77.27
2018-06-04T00:15:13.565Z,77.28
2018-06-04T00:17:42.394Z,77.28
2018-06-04T00:20:11.243Z,77.46
2018-06-04T00:22:40.074Z,77.53
2018-06-04T00:25:09.023Z,77.60
2018-06-04T00:27:37.855Z,77.88
2018-06-04T00:30:06.695Z,77.88
2018-06-04T00:32:35.538Z,78.33
2018-06-04T00:35:04.416Z,78.20
2018-06-04T00:37:33.288Z,78.48
2018-06-04T00:40:02.143Z,78.58
2018-06-04T00:42:30.959Z,78.78
2018-06-04T00:44:59.819Z,78.74
2018-06-04T00:47:28.639Z,78.44
2018-06-04T00:49:57.499Z,79.00
2018-06-04T00:52:26.333Z,77.89
2018-06-04T00:54:55.206Z,78.81
2018-06-04T00:57:24.022Z,78.76
2018-06-04T00:59:52.871Z,78.98
2018-06-04T01:02:21.688Z,78.94
2018-06-04T01:04:50.581Z,79.14
2018-06-04T01:07:19.425Z,78.92
2018-06-04T01:09:48.256Z,79.24
2018-06-04T01:12:17.088Z,79.29
2018-06-04T01:14:45.945Z,79.15
2018-06-04T01:17:14.785Z,79.20
2018-06-04T01:19:43.601Z,79.14
2018-06-04T01:22:12.460Z,79.05
2018-06-04T01:24:41.293Z,79.18
2018-06-04T01:27:10.149Z,78.97
2018-06-04T01:29:39.032Z,79.00
2018-06-04T01:32:07.879Z,79.07
2018-06-04T01:34:36.720Z,78.87
2018-06-04T01:37:05.563Z,78.94
2018-06-04T01:39:34.400Z,78.76
2018-06-04T01:42:03.273Z,78.74
2018-06-04T01:44:32.114Z,78.87
2018-06-04T01:47:00.968Z,78.40
2018-06-04T01:49:29.809Z,78.83
2018-06-04T01:51:58.706Z,78.80
2018-06-04T01:54:27.566Z,78.72
2018-06-04T01:56:56.461Z,78.68
2018-06-04T01:59:25.260Z,78.79
2018-06-04T02:01:54.132Z,78.52
2018-06-04T02:04:22.987Z,78.71
2018-06-04T02:06:51.822Z,78.53
2018-06-04T02:09:20.702Z,78.76
2018-06-04T02:11:49.558Z,78.72
2018-06-04T02:14:18.378Z,78.51
2018-06-04T02:16:47.302Z,78.37
2018-06-04T02:19:16.266Z,77.38
2018-06-04T02:21:45.122Z,78.29
2018-06-04T02:24:13.951Z,78.37
2018-06-04T02:26:42.814Z,78.22
2018-06-04T02:29:11.671Z,78.10
2018-06-04T02:31:40.535Z,78.32
2018-06-04T02:34:09.404Z,78.24
2018-06-04T02:36:38.284Z,78.50
2018-06-04T02:39:07.796Z,78.58
2018-06-04T02:41:36.665Z,78.82
2018-06-04T02:44:05.533Z,78.72
2018-06-04T02:46:34.398Z,78.74
2018-06-04T02:49:03.294Z,78.80
2018-06-04T02:51:32.124Z,78.79
2018-06-04T02:54:02.293Z,79.04
2018-06-04T02:56:31.153Z,78.95
2018-06-04T02:59:00.011Z,78.93
2018-06-04T03:01:28.856Z,78.73
2018-06-04T03:03:57.702Z,78.89
2018-06-04T03:06:26.567Z,78.54
2018-06-04T03:08:55.412Z,78.83
2018-06-04T03:11:24.252Z,78.63
2018-06-04T03:13:53.109Z,78.65
2018-06-04T03:16:21.954Z,78.86
2018-06-04T03:18:50.811Z,78.90
2018-06-04T03:21:19.646Z,78.78
2018-06-04T03:23:48.497Z,78.87
2018-06-04T03:26:17.342Z,79.04
2018-06-04T03:28:46.163Z,79.00
2018-06-04T03:31:15.027Z,78.70
2018-06-04T03:33:43.843Z,78.69
2018-06-04T03:36:12.696Z,78.99
2018-06-04T03:38:41.532Z,78.80
2018-06-04T03:41:10.370Z,78.76
2018-06-04T03:43:39.198Z,78.57
2018-06-04T03:46:08.066Z,78.37
2018-06-04T03:48:36.896Z,78.37
2018-06-04T03:51:05.733Z,78.45
2018-06-04T03:53:34.625Z,77.80
2018-06-04T03:56:03.458Z,78.88
2018-06-04T03:58:32.286Z,79.01
2018-06-04T04:01:01.098Z,78.54
2018-06-04T04:03:29.948Z,78.11
2018-06-04T04:05:58.766Z,78.24
2018-06-04T04:08:27.617Z,78.20
2018-06-04T04:10:56.432Z,78.19
2018-06-04T04:13:25.404Z,77.55
2018-06-04T04:15:54.235Z,78.02
2018-06-04T04:18:23.077Z,77.85
2018-06-04T04:20:51.915Z,77.91
2018-06-04T04:23:20.742Z,76.97
2018-06-04T04:25:49.613Z,78.04
2018-06-04T04:28:18.437Z,77.84
2018-06-04T04:30:47.291Z,77.86
2018-06-04T04:33:16.102Z,77.93
2018-06-04T04:35:44.970Z,77.89
2018-06-04T04:38:13.982Z,78.05
2018-06-04T04:40:42.787Z,78.05
2018-06-04T04:43:11.650Z,78.18
2018-06-04T04:45:40.538Z,77.92
2018-06-04T04:48:09.394Z,77.94
2018-06-04T04:50:38.224Z,77.89
2018-06-04T04:53:07.055Z,77.66
2018-06-04T04:55:35.905Z,77.62
2018-06-04T04:58:04.793Z,77.32
2018-06-04T05:00:33.604Z,77.37
2018-06-04T05:03:02.492Z,77.84
2018-06-04T05:05:31.347Z,76.81
2018-06-04T05:08:00.212Z,76.20
2018-06-04T05:10:29.059Z,76.96
2018-06-04T05:12:57.876Z,76.88
2018-06-04T05:15:26.732Z,76.67
2018-06-04T05:17:55.651Z,76.96
2018-06-04T05:20:24.538Z,76.89
2018-06-04T05:22:53.372Z,76.86
2018-06-04T05:25:22.218Z,76.93
2018-06-04T05:27:51.167Z,76.62
2018-06-04T05:30:20.058Z,76.28
2018-06-04T05:32:48.892Z,76.42
2018-06-04T05:35:17.773Z,76.35
2018-06-04T05:37:46.660Z,76.67
2018-06-04T05:40:15.519Z,76.10
2018-06-04T05:42:44.383Z,75.93
2018-06-04T05:45:13.232Z,75.90
2018-06-04T05:47:42.085Z,75.78
2018-06-04T05:50:10.920Z,75.63
2018-06-04T05:52:39.808Z,75.58
2018-06-04T05:55:08.688Z,75.38
2018-06-04T05:57:37.542Z,75.06
2018-06-04T06:00:06.372Z,75.27
2018-06-04T06:02:35.267Z,75.88
2018-06-04T06:05:04.107Z,75.76
2018-06-04T06:07:32.947Z,75.04
2018-06-04T06:10:01.829Z,75.22
2018-06-04T06:12:30.711Z,75.23
2018-06-04T06:14:59.530Z,75.09
2018-06-04T06:17:28.373Z,74.91
2018-06-04T06:19:57.239Z,74.68
2018-06-04T06:22:26.074Z,73.68
2018-06-04T06:24:54.928Z,74.22
2018-06-04T06:27:23.750Z,72.84
2018-06-04T06:29:52.608Z,73.43
2018-06-04T06:32:21.443Z,73.52
2018-06-04T06:34:50.321Z,73.41
2018-06-04T06:37:19.162Z,73.37
2018-06-04T06:39:47.994Z,72.80
2018-06-04T06:42:16.890Z,72.92
2018-06-04T06:44:45.737Z,73.13
2018-06-04T06:47:14.681Z,73.33
2018-06-04T06:49:43.541Z,73.03
2018-06-04T06:52:12.473Z,72.92
2018-06-04T06:54:41.368Z,71.95
2018-06-04T06:57:10.252Z,72.85
2018-06-04T06:59:39.127Z,72.60
2018-06-04T07:02:08.012Z,73.06
2018-06-04T07:04:36.900Z,73.22
2018-06-04T07:07:05.876Z,73.14
2018-06-04T07:09:34.847Z,73.17
2018-06-04T07:12:03.732Z,73.02
2018-06-04T07:14:32.669Z,73.17
2018-06-04T07:17:01.539Z,73.02
2018-06-04T07:19:30.422Z,72.63
2018-06-04T07:21:59.349Z,72.54
2018-06-04T07:24:28.203Z,72.59
2018-06-04T07:26:57.068Z,71.97
2018-06-04T07:29:25.928Z,71.98
2018-06-04T07:31:54.792Z,71.52
2018-06-04T07:34:23.798Z,71.62
2018-06-04T07:36:52.631Z,71.34
2018-06-04T07:39:21.492Z,71.44
2018-06-04T07:41:50.489Z,71.32
2018-06-04T07:44:19.366Z,71.88
2018-06-04T07:46:48.210Z,71.98
2018-06-04T07:49:17.052Z,71.53
2018-06-04T07:51:45.939Z,71.51
2018-06-04T07:54:14.824Z,71.54
2018-06-04T07:56:43.755Z,71.18
2018-06-04T07:59:12.572Z,70.92
2018-06-04T08:01:41.410Z,70.17
2018-06-04T08:04:10.241Z,68.42
2018-06-04T08:06:39.150Z,69.02
2018-06-04T08:09:08.307Z,67.66
2018-06-04T08:11:37.168Z,68.89
2018-06-04T08:14:06.233Z,68.46
2018-06-04T08:16:35.223Z,68.38
2018-06-04T08:19:04.046Z,68.36
2018-06-04T08:21:33.007Z,68.08
2018-06-04T08:24:02.037Z,67.80
2018-06-04T08:26:31.270Z,67.60
2018-06-04T08:29:00.410Z,67.33
2018-06-04T08:31:29.279Z,66.67
2018-06-04T08:33:58.376Z,66.55
2018-06-04T08:36:30.474Z,66.98
2018-06-04T08:38:59.450Z,66.92
2018-06-04T08:41:28.336Z,66.56
2018-06-04T08:43:57.210Z,66.42
2018-06-04T08:46:28.052Z,66.83
2018-06-04T08:48:57.082Z,67.21
2018-06-04T08:51:28.895Z,66.50
2018-06-04T08:54:03.620Z,67.11
2018-06-04T08:56:38.034Z,66.71
2018-06-04T08:59:10.058Z,67.28
2018-06-04T09:01:39.131Z,67.38
2018-06-04T09:04:10.027Z,67.42
2018-06-04T09:06:40.728Z,67.30
2018-06-04T09:09:08.134Z,66.15
2018-06-04T09:11:37.224Z,66.19
2018-06-04T09:14:06.079Z,66.04
2018-06-04T09:16:35.169Z,65.57
2018-06-04T09:19:04.954Z,65.88
2018-06-04T09:21:33.835Z,66.29
2018-06-04T09:24:02.732Z,65.64
2018-06-04T09:26:31.825Z,65.88
2018-06-04T09:29:01.142Z,65.90
2018-06-04T09:31:30.024Z,65.69
2018-06-04T09:33:58.966Z,65.87
2018-06-04T09:36:27.952Z,66.17
2018-06-04T09:38:56.876Z,65.76
2018-06-04T09:41:25.739Z,65.44
2018-06-04T09:43:54.596Z,65.03
2018-06-04T09:46:23.442Z,63.99
2018-06-04T09:48:52.510Z,64.59
2018-06-04T09:51:21.416Z,63.98
2018-06-04T09:53:50.347Z,63.69
2018-06-04T09:56:19.415Z,63.73
2018-06-04T09:58:48.383Z,63.94
2018-06-04T10:01:17.337Z,63.20
2018-06-04T10:03:49.231Z,62.63
2018-06-04T10:06:18.068Z,63.05
2018-06-04T10:08:46.938Z,62.70
2018-06-04T10:11:16.210Z,62.58
2018-06-04T10:13:45.064Z,61.07
2018-06-04T10:16:13.933Z,61.43
2018-06-04T10:18:45.862Z,60.61
2018-06-04T10:40:11.801Z,59.62
2018-06-04T10:42:40.624Z,61.11
2018-06-04T10:45:09.521Z,62.01
2018-06-04T10:47:41.259Z,61.74
2018-06-04T10:50:10.429Z,61.34
2018-06-04T10:52:39.368Z,60.93
2018-06-04T10:55:08.210Z,59.98
2018-06-04T10:57:37.112Z,60.36
2018-06-04T11:00:05.990Z,59.95
2018-06-04T11:02:34.913Z,61.27
2018-06-04T11:05:03.714Z,60.97
2018-06-04T11:07:32.581Z,61.18
2018-06-04T11:10:02.905Z,60.94
2018-06-04T11:12:31.790Z,60.56
2018-06-04T11:15:00.824Z,60.36
2018-06-04T11:17:29.696Z,60.45
2018-06-04T11:19:58.551Z,59.78
2018-06-04T11:22:27.459Z,59.04
2018-06-04T11:24:56.346Z,59.56
2018-06-04T11:27:25.230Z,59.00
2018-06-04T11:29:54.236Z,59.35
2018-06-04T11:32:23.083Z,58.64
2018-06-04T11:34:51.919Z,59.08
2018-06-04T11:37:20.778Z,59.77
2018-06-04T11:39:49.621Z,57.68
2018-06-04T11:42:18.463Z,56.36
2018-06-04T11:44:47.327Z,56.98
2018-06-04T11:47:16.339Z,56.19
2018-06-04T11:49:45.226Z,55.00
2018-06-04T11:52:14.055Z,53.94
2018-06-04T11:54:42.878Z,51.75
2018-06-04T11:57:11.745Z,51.24
2018-06-04T11:59:40.587Z,50.40
2018-06-04T12:02:09.602Z,48.62
2018-06-04T12:04:38.711Z,47.13
2018-06-04T12:07:09.024Z,49.46
2018-06-04T12:09:38.038Z,50.25
2018-06-04T12:12:07.058Z,50.61
2018-06-04T12:14:36.343Z,49.63
2018-06-04T12:17:05.300Z,50.63
2018-06-04T12:19:34.494Z,50.11
2018-06-04T12:22:03.380Z,50.10
2018-06-04T12:24:32.276Z,49.98
2018-06-04T12:27:01.176Z,49.65
2018-06-04T12:29:30.286Z,49.09
2018-06-04T12:31:59.199Z,48.61
2018-06-04T12:34:28.066Z,49.40
2018-06-04T12:36:56.993Z,48.41
2018-06-04T12:39:25.820Z,47.34
2018-06-04T12:41:54.669Z,46.83
2018-06-04T12:44:23.501Z,47.19
2018-06-04T12:46:52.380Z,47.77
2018-06-04T12:49:21.224Z,48.13
2018-06-04T12:51:50.076Z,46.83
2018-06-04T12:54:19.157Z,48.07
2018-06-04T12:56:48.251Z,49.12
2018-06-04T12:59:17.117Z,48.43
2018-06-04T13:01:46.123Z,46.24
2018-06-04T13:04:15.030Z,46.17
2018-06-04T13:06:43.899Z,46.92
2018-06-04T13:09:12.934Z,47.89
2018-06-04T13:11:41.824Z,46.58
2018-06-04T13:14:10.791Z,45.93
2018-06-04T13:16:39.729Z,44.71
2018-06-04T13:19:08.574Z,45.86
2018-06-04T13:21:37.647Z,44.46
2018-06-04T13:24:06.531Z,45.86
2018-06-04T13:26:35.396Z,45.25
2018-06-04T13:29:04.285Z,44.31
2018-06-04T13:31:33.248Z,43.83
2018-06-04T13:34:02.189Z,43.81
2018-06-04T13:36:31.008Z,43.69
2018-06-04T13:38:59.864Z,45.92
2018-06-04T13:41:28.693Z,45.37
2018-06-04T13:43:57.536Z,43.57
2018-06-04T13:46:28.903Z,46.24
2018-06-04T13:48:57.752Z,44.80
2018-06-04T13:51:26.652Z,45.39
2018-06-04T13:53:55.576Z,45.72
2018-06-04T13:56:24.566Z,45.39
2018-06-04T13:58:53.505Z,44.79
2018-06-04T14:01:22.369Z,44.39
2018-06-04T14:03:51.293Z,43.57
2018-06-04T14:06:20.082Z,42.93
2018-06-04T14:08:48.985Z,44.53
2018-06-04T14:11:18.700Z,43.87
2018-06-04T14:13:47.500Z,45.90
2018-06-04T14:16:16.378Z,46.63
2018-06-04T14:18:45.203Z,45.82
2018-06-04T14:21:14.037Z,46.52
2018-06-04T14:23:42.882Z,46.88
2018-06-04T14:26:11.730Z,45.61
2018-06-04T14:28:40.567Z,46.04
2018-06-04T14:31:09.472Z,46.42
2018-06-04T14:33:38.384Z,47.35
2018-06-04T14:36:07.201Z,46.87
2018-06-04T14:38:36.088Z,45.48
2018-06-04T14:41:04.947Z,45.85
2018-06-04T14:43:33.821Z,46.39
2018-06-04T14:46:02.683Z,46.68
2018-06-04T14:48:31.946Z,47.44
2018-06-04T14:51:00.867Z,47.38
2018-06-04T14:53:29.929Z,46.83
2018-06-04T14:55:58.905Z,47.68
2018-06-04T14:58:27.816Z,48.31
2018-06-04T15:00:56.763Z,48.65
2018-06-04T15:03:25.739Z,49.43
2018-06-04T15:05:54.766Z,49.65
2018-06-04T15:08:23.744Z,48.49
2018-06-04T15:10:52.666Z,49.48
2018-06-04T15:13:21.619Z,49.18
2018-06-04T15:15:50.564Z,49.06
2018-06-04T15:18:19.558Z,49.87
2018-06-04T15:20:48.402Z,49.55
2018-06-04T15:23:17.273Z,49.82
2018-06-04T15:25:46.115Z,50.92
2018-06-04T15:28:14.938Z,51.89
2018-06-04T15:30:43.757Z,51.32
2018-06-04T15:33:12.649Z,50.89
2018-06-04T15:35:41.471Z,50.62
2018-06-04T15:38:10.315Z,50.75
2018-06-04T15:40:39.183Z,50.98
2018-06-04T15:43:08.021Z,50.73
2018-06-04T15:45:36.890Z,51.50
2018-06-04T15:48:05.736Z,51.97
2018-06-04T15:50:34.578Z,50.52
2018-06-04T15:53:03.414Z,50.88
2018-06-04T15:55:32.245Z,50.29
2018-06-04T15:58:01.103Z,50.55
2018-06-04T16:00:29.965Z,50.29
2018-06-04T16:02:58.801Z,50.79
2018-06-04T16:05:27.909Z,50.24
2018-06-04T16:07:57.023Z,50.95
2018-06-04T16:10:25.877Z,50.84
2018-06-04T16:12:54.736Z,51.52
2018-06-04T16:15:23.565Z,50.79
2018-06-04T16:17:52.409Z,50.68
2018-06-04T16:20:21.249Z,51.61
2018-06-04T16:22:50.084Z,50.84
2018-06-04T16:25:18.930Z,51.49
2018-06-04T16:27:47.804Z,52.05
2018-06-04T16:30:16.674Z,51.62
2018-06-04T16:32:45.542Z,51.32
2018-06-04T16:35:14.384Z,51.84
2018-06-04T16:37:43.260Z,52.52
2018-06-04T16:40:12.107Z,52.68
2018-06-04T16:42:40.956Z,52.76
2018-06-04T16:45:09.832Z,52.95
2018-06-04T16:47:38.650Z,53.28
2018-06-04T16:50:07.566Z,53.47
2018-06-04T16:52:36.384Z,53.79
2018-06-04T16:55:05.277Z,53.66
2018-06-04T16:57:34.083Z,53.71
2018-06-04T17:00:02.969Z,54.23
2018-06-04T17:02:31.816Z,54.07
2018-06-04T17:05:00.658Z,53.92
2018-06-04T17:07:29.530Z,53.80
2018-06-04T17:09:58.408Z,54.25
2018-06-04T17:12:27.315Z,54.37
2018-06-04T17:14:56.134Z,54.53
2018-06-04T17:17:24.993Z,53.96
2018-06-04T17:19:53.853Z,54.57
2018-06-04T17:22:22.728Z,54.46
2018-06-04T17:24:51.578Z,54.70
2018-06-04T17:27:20.452Z,55.35
2018-06-04T17:29:49.326Z,55.77
2018-06-04T17:32:18.170Z,55.88
2018-06-04T17:34:47.040Z,56.00
2018-06-04T17:37:15.918Z,56.42
2018-06-04T17:39:44.762Z,56.48
2018-06-04T17:42:13.592Z,56.42
2018-06-04T17:44:42.464Z,56.61
2018-06-04T17:47:11.296Z,56.50
2018-06-04T17:49:40.161Z,56.77
2018-06-04T17:52:09.006Z,56.78
2018-06-04T17:54:37.872Z,56.58
2018-06-04T17:57:06.707Z,57.12
2018-06-04T17:59:35.603Z,56.69
2018-06-04T18:02:04.468Z,56.92
2018-06-04T18:04:33.282Z,57.47
2018-06-04T18:07:02.149Z,57.92
2018-06-04T18:09:30.981Z,57.92
2018-06-04T18:11:59.843Z,58.17
2018-06-04T18:14:28.707Z,58.07
2018-06-04T18:16:57.554Z,58.52
2018-06-04T18:19:29.233Z,58.59
2018-06-04T18:21:58.099Z,58.82
2018-06-04T18:24:26.962Z,59.72
2018-06-04T18:26:55.839Z,59.46
2018-06-04T18:29:24.658Z,59.87
2018-06-04T18:31:53.628Z,60.18
2018-06-04T18:34:22.653Z,60.89
2018-06-04T18:36:51.533Z,61.04
2018-06-04T18:39:20.435Z,61.20
2018-06-04T18:41:49.274Z,61.27
2018-06-04T18:44:18.107Z,61.62
2018-06-04T18:46:46.944Z,61.47
2018-06-04T18:49:15.810Z,61.50
2018-06-04T18:51:44.634Z,61.39
2018-06-04T18:54:13.509Z,61.79
2018-06-04T18:56:42.332Z,61.29
2018-06-04T18:59:11.190Z,61.40
2018-06-04T19:01:40.024Z,61.23
2018-06-04T19:04:08.897Z,61.36
2018-06-04T19:06:37.788Z,61.52
2018-06-04T19:09:09.004Z,61.74
2018-06-04T19:11:38.158Z,61.94
2018-06-04T19:14:06.987Z,61.61
2018-06-04T19:16:35.837Z,62.18
2018-06-04T19:19:04.715Z,62.36
2018-06-04T19:21:33.584Z,62.37
2018-06-04T19:24:02.421Z,62.64
2018-06-04T19:26:31.274Z,62.68
2018-06-04T19:29:00.118Z,62.70
2018-06-04T19:31:28.977Z,62.55
2018-06-04T19:33:57.868Z,62.36
2018-06-04T19:36:26.709Z,62.24
2018-06-04T19:38:55.548Z,62.08
2018-06-04T19:41:24.415Z,62.71
2018-06-04T19:43:53.248Z,62.71
2018-06-04T19:46:23.685Z,62.91
2018-06-04T19:48:52.518Z,62.81
2018-06-04T19:51:21.392Z,63.08
2018-06-04T19:53:50.236Z,63.12
2018-06-04T19:56:19.091Z,62.98
2018-06-04T19:58:47.937Z,63.08
2018-06-04T20:01:16.775Z,63.32
2018-06-04T20:03:45.662Z,63.42
2018-06-04T20:06:14.502Z,63.60
2018-06-04T20:08:43.323Z,63.56
2018-06-04T20:11:12.153Z,63.45
2018-06-04T20:13:40.997Z,63.92
2018-06-04T20:16:09.835Z,63.94
2018-06-04T20:18:38.678Z,63.86
2018-06-04T20:21:07.514Z,64.67
2018-06-04T20:23:36.374Z,64.55
2018-06-04T20:26:05.245Z,64.76
2018-06-04T20:28:34.103Z,64.78
2018-06-04T20:31:02.956Z,64.30
2018-06-04T20:33:31.799Z,64.14
2018-06-04T20:36:00.624Z,64.17
2018-06-04T20:38:29.493Z,64.35
2018-06-04T20:40:58.347Z,64.29
2018-06-04T20:43:27.206Z,64.60
2018-06-04T20:45:56.041Z,63.91
2018-06-04T20:48:24.886Z,64.24
2018-06-04T20:50:53.737Z,64.40
2018-06-04T20:53:22.592Z,64.70
2018-06-04T20:55:51.459Z,64.30
2018-06-04T20:58:20.281Z,64.57
2018-06-04T21:00:49.150Z,64.47
2018-06-04T21:03:18.013Z,64.57
2018-06-04T21:05:46.851Z,64.33
2018-06-04T21:08:15.684Z,64.74
2018-06-04T21:10:44.548Z,64.86
2018-06-04T21:13:13.410Z,64.92
2018-06-04T21:15:42.271Z,64.51
2018-06-04T21:18:11.121Z,64.56
2018-06-04T21:20:39.976Z,64.96
2018-06-04T21:23:08.810Z,65.11
2018-06-04T21:25:37.656Z,65.44
2018-06-04T21:28:06.500Z,65.16
2018-06-04T21:30:35.332Z,65.01
2018-06-04T21:33:04.185Z,65.67
2018-06-04T21:35:33.019Z,65.66
2018-06-04T21:38:01.864Z,65.58
2018-06-04T21:40:30.705Z,65.57
2018-06-04T21:42:59.563Z,65.93
2018-06-04T21:45:28.405Z,65.62
2018-06-04T21:47:57.271Z,66.06
2018-06-04T21:50:26.088Z,66.46
2018-06-04T21:52:54.947Z,66.56
2018-06-04T21:55:23.793Z,66.61
2018-06-04T21:57:52.643Z,66.49
2018-06-04T22:00:21.495Z,66.59
2018-06-04T22:02:50.309Z,66.79
2018-06-04T22:05:19.159Z,67.01
2018-06-04T22:07:48.004Z,66.88
2018-06-04T22:10:16.838Z,66.43
2018-06-04T22:12:45.690Z,66.97
2018-06-04T22:15:14.549Z,66.95
2018-06-04T22:17:43.391Z,67.34
2018-06-04T22:20:12.229Z,67.17
2018-06-04T22:22:41.107Z,67.86
2018-06-04T22:25:09.939Z,67.57
2018-06-04T22:27:38.801Z,67.69
2018-06-04T22:30:07.641Z,68.03
2018-06-04T22:32:36.497Z,67.73
2018-06-04T22:35:05.532Z,68.35
2018-06-04T22:37:34.395Z,68.22
2018-06-04T22:40:03.269Z,68.52
2018-06-04T22:42:32.100Z,68.62
2018-06-04T22:45:00.948Z,68.56
2018-06-04T22:47:29.789Z,68.45
2018-06-04T22:49:58.639Z,68.40
2018-06-04T22:52:27.523Z,69.00
2018-06-04T22:54:56.431Z,69.19
2018-06-04T22:57:25.277Z,69.14
2018-06-04T22:59:54.113Z,69.32
2018-06-04T23:02:22.987Z,69.24
2018-06-04T23:04:51.896Z,69.38
2018-06-04T23:07:20.737Z,69.10
2018-06-04T23:09:49.581Z,69.55
2018-06-04T23:12:18.417Z,69.72
2018-06-04T23:14:47.237Z,69.95
2018-06-04T23:17:16.105Z,69.95
2018-06-04T23:19:44.921Z,69.67
2018-06-04T23:22:13.788Z,69.28
2018-06-04T23:24:42.650Z,69.94
2018-06-04T23:27:11.491Z,69.61
2018-06-04T23:29:40.338Z,69.71
2018-06-04T23:32:09.168Z,69.76
2018-06-04T23:34:38.034Z,69.91
2018-06-04T23:37:06.856Z,69.94
2018-06-04T23:39:35.715Z,70.01
2018-06-04T23:42:04.543Z,69.91
2018-06-04T23:44:33.394Z,70.01
2018-06-04T23:47:02.208Z,69.82
2018-06-04T23:49:31.109Z,69.32
2018-06-04T23:51:59.991Z,69.99
2018-06-04T23:54:28.866Z,70.00
2018-06-04T23:56:57.774Z,70.10
2018-06-04T23:59:26.626Z,70.44
